createdAt,value
2019-02-25T00:02:26.850Z,21.17
2019-02-25T00:05:06.234Z,20.93
2019-02-25T00:07:46.423Z,20.00
2019-02-25T00:10:37.507Z,20.77
2019-02-25T00:13:10.868Z,20.93
2019-02-25T00:15:43.013Z,20.37
2019-02-25T00:18:15.845Z,19.90
2019-02-25T00:20:47.175Z,20.20
2019-02-25T00:23:20.444Z,19.33
2019-02-25T00:25:52.657Z,18.30
2019-02-25T00:28:23.953Z,20.23
2019-02-25T00:31:02.624Z,20.00
2019-02-25T00:33:36.377Z,21.67
2019-02-25T00:36:10.148Z,22.37
2019-02-25T00:38:42.985Z,21.30
2019-02-25T00:41:14.692Z,18.30
2019-02-25T00:43:48.050Z,18.40
2019-02-25T00:46:19.497Z,17.83
2019-02-25T00:48:53.353Z,18.47
2019-02-25T00:51:24.855Z,16.90
2019-02-25T00:53:56.551Z,16.63
2019-02-25T00:56:28.142Z,16.40
2019-02-25T00:59:02.212Z,16.07
2019-02-25T01:01:36.869Z,16.20
2019-02-25T01:04:10.936Z,15.40
2019-02-25T01:06:45.986Z,15.07
2019-02-25T01:09:18.003Z,14.63
2019-02-25T01:11:49.381Z,14.40
2019-02-25T01:14:21.233Z,13.73
2019-02-25T01:16:52.885Z,14.20
2019-02-25T01:19:24.676Z,14.10
2019-02-25T01:21:55.411Z,14.17
2019-02-25T01:24:28.405Z,14.97
2019-02-25T01:27:01.574Z,13.00
2019-02-25T01:29:33.864Z,13.87
2019-02-25T01:32:07.706Z,12.90
2019-02-25T01:34:39.141Z,14.03
2019-02-25T01:37:14.702Z,14.07
2019-02-25T01:39:47.256Z,14.27
2019-02-25T01:42:21.416Z,14.37
2019-02-25T01:44:55.559Z,13.83
2019-02-25T01:47:33.573Z,14.37
2019-02-25T01:50:06.105Z,15.27
2019-02-25T01:52:39.642Z,14.20
2019-02-25T01:55:11.220Z,14.97
2019-02-25T01:57:43.394Z,15.37
2019-02-25T02:00:15.448Z,15.23
2019-02-25T02:02:48.459Z,14.53
2019-02-25T02:05:20.057Z,16.70
2019-02-25T02:07:51.927Z,15.73
2019-02-25T02:10:25.213Z,16.40
2019-02-25T02:12:56.083Z,16.23
2019-02-25T02:15:26.783Z,17.13
2019-02-25T02:17:58.774Z,17.37
2019-02-25T02:20:30.466Z,16.43
2019-02-25T02:23:02.619Z,17.23
2019-02-25T02:25:34.625Z,15.83
2019-02-25T02:28:06.246Z,16.73
2019-02-25T02:30:39.573Z,17.33
2019-02-25T02:33:13.758Z,16.33
2019-02-25T02:35:45.982Z,16.60
2019-02-25T02:38:18.761Z,17.57
2019-02-25T02:40:49.857Z,16.27
2019-02-25T02:43:21.043Z,17.10
2019-02-25T02:46:09.288Z,16.43
2019-02-25T02:48:52.362Z,17.30
2019-02-25T02:51:28.230Z,16.20
2019-02-25T02:54:00.513Z,16.87
2019-02-25T02:56:34.111Z,16.30
2019-02-25T02:59:08.612Z,17.90
2019-02-25T03:01:40.853Z,16.53
2019-02-25T03:04:11.649Z,15.97
2019-02-25T03:06:42.305Z,16.63
2019-02-25T03:09:13.504Z,16.23
2019-02-25T03:11:45.043Z,15.73
2019-02-25T03:14:16.494Z,16.60
2019-02-25T03:16:56.135Z,16.97
2019-02-25T03:19:27.451Z,17.33
2019-02-25T03:21:59.095Z,15.90
2019-02-25T03:24:30.457Z,17.57
2019-02-25T03:27:04.224Z,17.60
2019-02-25T03:29:36.248Z,17.87
2019-02-25T03:32:06.970Z,16.43
2019-02-25T03:34:37.772Z,16.73
2019-02-25T03:37:25.547Z,16.17
2019-02-25T03:40:05.931Z,16.47
2019-02-25T03:42:38.250Z,16.50
2019-02-25T03:45:11.353Z,16.60
2019-02-25T03:47:44.495Z,16.53
2019-02-25T03:50:15.982Z,16.70
2019-02-25T03:52:47.756Z,17.90
2019-02-25T03:55:19.533Z,17.53
2019-02-25T03:57:51.019Z,17.40
2019-02-25T04:00:22.181Z,18.40
2019-02-25T04:02:53.498Z,17.60
2019-02-25T04:05:24.264Z,18.20
2019-02-25T04:07:55.163Z,19.23
2019-02-25T04:10:25.704Z,18.23
2019-02-25T04:12:57.764Z,19.20
2019-02-25T04:15:33.791Z,18.27
2019-02-25T04:18:05.819Z,19.03
2019-02-25T04:20:39.409Z,17.30
2019-02-25T04:23:11.228Z,19.10
2019-02-25T04:25:44.764Z,19.43
2019-02-25T04:28:16.143Z,19.30
2019-02-25T04:30:47.620Z,21.30
2019-02-25T04:33:18.339Z,19.67
2019-02-25T04:35:49.133Z,20.33
2019-02-25T04:38:21.003Z,20.07
2019-02-25T04:40:52.476Z,21.07
2019-02-25T04:43:23.196Z,19.80
2019-02-25T04:45:54.454Z,19.73
2019-02-25T04:48:25.723Z,22.17
2019-02-25T04:50:57.325Z,20.30
2019-02-25T04:53:28.565Z,21.90
2019-02-25T04:55:59.882Z,23.03
2019-02-25T04:58:30.966Z,21.63
2019-02-25T05:01:02.387Z,21.27
2019-02-25T05:03:35.226Z,22.37
2019-02-25T05:06:06.685Z,23.30
2019-02-25T05:08:38.651Z,22.10
2019-02-25T05:11:10.059Z,22.93
2019-02-25T05:13:41.554Z,25.90
2019-02-25T05:16:12.543Z,24.57
2019-02-25T05:18:43.452Z,26.67
2019-02-25T05:21:14.955Z,26.90
2019-02-25T05:23:46.471Z,27.87
2019-02-25T05:26:18.904Z,27.73
2019-02-25T05:28:51.770Z,27.90
2019-02-25T05:31:22.826Z,32.40
2019-02-25T05:33:54.672Z,32.00
2019-02-25T05:36:27.335Z,31.67
2019-02-25T05:38:58.825Z,32.47
2019-02-25T05:41:30.290Z,34.37
2019-02-25T05:44:04.684Z,33.53
2019-02-25T05:46:43.087Z,33.30
2019-02-25T05:49:13.906Z,33.17
2019-02-25T05:51:45.185Z,32.53
2019-02-25T05:54:16.545Z,32.90
2019-02-25T05:56:47.517Z,34.50
2019-02-25T05:59:20.126Z,31.70
2019-02-25T06:01:54.431Z,33.90
2019-02-25T06:04:25.291Z,33.77
2019-02-25T06:06:56.355Z,34.47
2019-02-25T06:09:27.135Z,35.50
2019-02-25T06:11:59.273Z,34.10
2019-02-25T06:14:30.300Z,33.83
2019-02-25T06:17:05.523Z,35.97
2019-02-25T06:19:37.634Z,36.20
2019-02-25T06:22:09.027Z,38.87
2019-02-25T06:24:41.200Z,38.47
2019-02-25T06:27:12.575Z,37.33
2019-02-25T06:29:44.162Z,36.37
2019-02-25T06:32:15.601Z,36.10
2019-02-25T06:34:47.174Z,37.43
2019-02-25T06:37:18.671Z,38.03
2019-02-25T06:39:50.551Z,39.67
2019-02-25T06:42:22.770Z,39.13
2019-02-25T06:44:54.280Z,37.87
2019-02-25T06:47:25.526Z,39.07
2019-02-25T06:49:57.132Z,39.50
2019-02-25T06:52:28.674Z,39.80
2019-02-25T06:55:00.224Z,41.57
2019-02-25T06:57:33.325Z,39.33
2019-02-25T07:00:05.992Z,39.63
2019-02-25T07:02:37.862Z,39.47
2019-02-25T07:05:43.964Z,37.37
2019-02-25T07:08:19.926Z,41.00
2019-02-25T07:11:06.062Z,39.33
2019-02-25T07:13:55.319Z,38.30
2019-02-25T07:16:38.452Z,42.57
2019-02-25T07:19:37.785Z,42.50
2019-02-25T07:22:28.137Z,41.77
2019-02-25T07:25:24.743Z,41.90
2019-02-25T07:28:23.677Z,40.77
2019-02-25T07:31:03.507Z,39.63
2019-02-25T07:33:45.058Z,40.07
2019-02-25T07:36:38.869Z,39.63
2019-02-25T07:39:33.785Z,39.53
2019-02-25T07:42:22.754Z,39.27
2019-02-25T07:45:30.930Z,39.60
2019-02-25T07:48:14.872Z,39.27
2019-02-25T07:50:55.995Z,41.30
2019-02-25T07:53:49.169Z,39.33
2019-02-25T07:56:43.844Z,38.47
2019-02-25T07:59:19.927Z,39.00
2019-02-25T08:02:09.546Z,38.73
2019-02-25T08:04:53.758Z,37.80
2019-02-25T08:07:43.993Z,36.70
2019-02-25T08:10:22.348Z,38.07
2019-02-25T08:13:01.353Z,36.20
2019-02-25T08:15:39.212Z,38.20
2019-02-25T08:18:28.821Z,37.43
2019-02-25T08:21:10.623Z,38.33
2019-02-25T08:24:10.021Z,38.23
2019-02-25T08:27:01.435Z,36.57
2019-02-25T08:29:55.107Z,37.73
2019-02-25T08:32:44.387Z,37.23
2019-02-25T08:36:03.048Z,35.83
2019-02-25T08:38:59.042Z,36.87
2019-02-25T08:41:40.990Z,37.50
2019-02-25T08:44:25.609Z,36.07
2019-02-25T08:47:03.659Z,35.43
2019-02-25T08:49:44.302Z,35.07
2019-02-25T08:52:15.148Z,35.90
2019-02-25T08:54:46.729Z,37.67
2019-02-25T08:57:17.660Z,36.33
2019-02-25T08:59:49.258Z,37.33
2019-02-25T09:02:21.005Z,39.17
2019-02-25T09:04:52.188Z,35.13
2019-02-25T09:07:23.741Z,37.73
2019-02-25T09:09:55.330Z,39.00
2019-02-25T09:12:26.961Z,37.17
2019-02-25T09:14:58.503Z,37.83
2019-02-25T09:17:31.698Z,36.67
2019-02-25T09:20:03.481Z,36.17
2019-02-25T09:22:36.331Z,36.60
2019-02-25T09:25:07.871Z,36.37
2019-02-25T09:27:40.059Z,36.63
2019-02-25T09:30:14.475Z,35.87
2019-02-25T09:32:47.386Z,39.03
2019-02-25T09:35:19.849Z,37.23
2019-02-25T09:37:52.746Z,35.37
2019-02-25T09:40:25.018Z,36.00
2019-02-25T09:42:56.263Z,36.03
2019-02-25T09:45:27.504Z,36.30
2019-02-25T09:47:58.583Z,35.33
2019-02-25T09:50:30.565Z,37.07
2019-02-25T09:53:02.657Z,37.47
2019-02-25T09:55:37.077Z,38.13
2019-02-25T09:58:08.031Z,40.37
2019-02-25T10:00:40.718Z,38.03
2019-02-25T10:03:12.277Z,40.17
2019-02-25T10:05:46.312Z,38.13
2019-02-25T10:08:18.068Z,39.03
2019-02-25T10:10:49.840Z,36.33
2019-02-25T10:13:21.380Z,36.57
2019-02-25T10:15:52.349Z,38.43
2019-02-25T10:18:23.990Z,35.93
2019-02-25T10:20:55.997Z,37.53
2019-02-25T10:23:27.533Z,38.63
2019-02-25T10:25:58.789Z,39.07
2019-02-25T10:28:30.722Z,38.13
2019-02-25T10:31:02.445Z,36.50
2019-02-25T10:33:34.032Z,35.90
2019-02-25T10:36:05.798Z,36.20
2019-02-25T10:38:38.575Z,36.40
2019-02-25T10:41:10.354Z,35.43
2019-02-25T10:43:41.575Z,35.77
2019-02-25T10:46:15.106Z,36.43
2019-02-25T10:48:47.518Z,34.20
2019-02-25T10:51:19.178Z,35.73
2019-02-25T10:53:52.031Z,35.37
2019-02-25T10:56:55.762Z,35.37
2019-02-25T10:59:27.183Z,34.17
2019-02-25T11:01:58.529Z,37.13
2019-02-25T11:04:30.547Z,36.27
2019-02-25T11:07:03.516Z,36.83
2019-02-25T11:09:42.456Z,35.80
2019-02-25T11:12:14.903Z,36.13
2019-02-25T11:14:46.607Z,37.00
2019-02-25T11:17:18.338Z,35.40
2019-02-25T11:19:51.118Z,34.97
2019-02-25T11:22:22.029Z,36.50
2019-02-25T11:24:53.518Z,35.07
2019-02-25T11:27:26.288Z,35.67
2019-02-25T11:29:58.158Z,37.00
2019-02-25T11:32:30.373Z,34.60
2019-02-25T11:35:04.060Z,33.90
2019-02-25T11:37:38.346Z,32.83
2019-02-25T11:40:10.112Z,34.77
2019-02-25T11:42:42.622Z,32.43
2019-02-25T11:45:14.373Z,33.57
2019-02-25T11:47:46.445Z,33.83
2019-02-25T11:50:18.691Z,32.13
2019-02-25T11:52:50.193Z,34.90
2019-02-25T11:55:21.987Z,34.07
2019-02-25T11:57:53.755Z,33.30
2019-02-25T12:00:27.193Z,32.67
2019-02-25T12:02:58.545Z,32.17
2019-02-25T12:05:30.792Z,33.23
2019-02-25T12:08:02.700Z,34.20
2019-02-25T12:10:34.389Z,33.53
2019-02-25T12:13:06.229Z,36.47
2019-02-25T12:15:37.738Z,31.33
2019-02-25T12:18:09.337Z,32.27
2019-02-25T12:20:40.952Z,30.53
2019-02-25T12:23:12.681Z,30.83
2019-02-25T12:25:45.056Z,29.90
2019-02-25T12:28:17.172Z,31.57
2019-02-25T12:30:49.118Z,31.53
2019-02-25T12:33:20.493Z,31.30
2019-02-25T12:35:52.267Z,30.10
2019-02-25T12:38:23.767Z,29.57
2019-02-25T12:40:55.684Z,29.17
2019-02-25T12:43:27.423Z,26.17
2019-02-25T12:45:59.114Z,23.60
2019-02-25T12:48:31.028Z,23.27
2019-02-25T12:51:02.861Z,23.13
2019-02-25T12:53:37.763Z,24.17
2019-02-25T12:56:09.273Z,22.87
2019-02-25T12:58:40.958Z,21.70
2019-02-25T13:01:13.043Z,20.83
2019-02-25T13:03:45.948Z,23.67
2019-02-25T13:06:18.505Z,22.00
2019-02-25T13:08:50.129Z,23.10
2019-02-25T13:11:22.132Z,24.83
2019-02-25T13:13:53.537Z,22.27
2019-02-25T13:16:26.756Z,19.90
2019-02-25T13:18:58.121Z,20.30
2019-02-25T13:21:29.703Z,19.47
2019-02-25T13:24:02.098Z,20.93
2019-02-25T13:26:36.600Z,20.00
2019-02-25T13:29:08.624Z,18.87
2019-02-25T13:31:40.141Z,18.90
2019-02-25T13:34:11.894Z,19.33
2019-02-25T13:36:44.731Z,19.63
2019-02-25T13:39:16.275Z,20.53
2019-02-25T13:41:48.089Z,20.17
2019-02-25T13:44:19.569Z,19.83
2019-02-25T13:46:51.169Z,21.07
2019-02-25T13:49:22.996Z,20.60
2019-02-25T13:51:55.151Z,20.87
2019-02-25T13:54:26.904Z,20.33
2019-02-25T13:57:01.776Z,18.73
2019-02-25T13:59:34.249Z,20.23
2019-02-25T14:02:06.358Z,21.40
2019-02-25T14:04:37.985Z,18.87
2019-02-25T14:07:09.028Z,19.90
2019-02-25T14:09:41.026Z,20.23
2019-02-25T14:12:15.109Z,20.03
2019-02-25T14:14:46.322Z,19.27
2019-02-25T14:17:18.851Z,18.63
2019-02-25T14:19:51.970Z,19.30
2019-02-25T14:22:25.057Z,19.03
2019-02-25T14:24:56.757Z,21.20
2019-02-25T14:27:29.588Z,18.80
2019-02-25T14:30:00.797Z,19.13
2019-02-25T14:32:34.591Z,18.83
2019-02-25T14:35:07.923Z,18.57
2019-02-25T14:37:41.118Z,17.93
2019-02-25T14:40:16.685Z,17.33
2019-02-25T14:42:49.468Z,16.73
2019-02-25T14:45:21.822Z,16.53
2019-02-25T14:47:59.686Z,17.13
2019-02-25T14:50:32.407Z,17.50
2019-02-25T14:53:08.576Z,18.07
2019-02-25T14:55:42.875Z,17.87
2019-02-25T14:58:16.933Z,18.77
2019-02-25T15:00:48.630Z,17.43
2019-02-25T15:03:22.513Z,16.90
2019-02-25T15:05:55.033Z,17.63
2019-02-25T15:08:28.491Z,18.63
2019-02-25T15:11:02.304Z,17.73
2019-02-25T15:13:35.412Z,18.93
2019-02-25T15:16:09.352Z,18.10
2019-02-25T15:18:41.123Z,16.60
2019-02-25T15:21:15.158Z,17.03
2019-02-25T15:23:45.026Z,17.33
2019-02-25T15:26:18.963Z,18.47
2019-02-25T15:28:53.709Z,18.40
2019-02-25T15:31:25.469Z,17.87
2019-02-25T15:33:56.417Z,19.90
2019-02-25T15:36:28.959Z,19.20
2019-02-25T15:39:00.158Z,21.60
2019-02-25T15:41:32.142Z,21.60
2019-02-25T15:44:04.882Z,21.43
2019-02-25T15:46:36.363Z,21.37
2019-02-25T15:49:12.810Z,22.10
2019-02-25T15:51:43.096Z,20.60
2019-02-25T15:54:15.907Z,22.03
2019-02-25T15:56:47.165Z,21.80
2019-02-25T15:59:19.543Z,22.37
2019-02-25T16:01:54.463Z,22.93
2019-02-25T16:04:33.963Z,22.37
2019-02-25T16:10:19.317Z,22.87
2019-02-25T16:13:09.274Z,23.73
2019-02-25T16:15:41.727Z,23.00
2019-02-25T16:21:13.233Z,24.47
2019-02-25T16:23:51.387Z,26.60
2019-02-25T16:26:42.827Z,27.13
2019-02-25T16:29:43.955Z,25.83
2019-02-25T16:32:26.907Z,25.20
2019-02-25T16:35:00.137Z,25.43
2019-02-25T16:37:35.137Z,24.00
2019-02-25T16:40:08.343Z,23.77
2019-02-25T16:42:41.605Z,22.37
2019-02-25T16:45:15.349Z,23.43
2019-02-25T16:47:57.884Z,21.70
2019-02-25T16:50:29.961Z,23.37
2019-02-25T16:53:05.932Z,24.30
2019-02-25T16:55:37.117Z,23.27
2019-02-25T16:58:11.239Z,24.97
2019-02-25T17:00:42.206Z,23.70
2019-02-25T17:03:15.984Z,30.63
2019-02-25T17:05:47.665Z,28.90
2019-02-25T17:08:21.562Z,28.50
2019-02-25T17:10:53.969Z,28.90
2019-02-25T17:13:25.741Z,28.53
2019-02-25T17:15:57.605Z,28.30
2019-02-25T17:18:30.914Z,27.53
2019-02-25T17:21:05.100Z,25.70
2019-02-25T17:23:38.799Z,25.67
2019-02-25T17:26:12.500Z,24.63
2019-02-25T17:28:46.011Z,25.00
2019-02-25T17:31:18.695Z,23.27
2019-02-25T17:33:51.414Z,23.47
2019-02-25T17:36:23.984Z,22.53
2019-02-25T17:38:56.171Z,22.53
2019-02-25T17:41:27.671Z,21.80
2019-02-25T17:43:59.233Z,21.63
2019-02-25T17:46:32.836Z,20.93
2019-02-25T17:49:06.019Z,18.07
2019-02-25T17:51:38.371Z,19.43
2019-02-25T17:54:10.785Z,18.73
2019-02-25T17:56:46.922Z,19.17
2019-02-25T17:59:21.377Z,17.20
2019-02-25T18:01:54.959Z,15.87
2019-02-25T18:04:26.611Z,17.23
2019-02-25T18:06:58.839Z,16.27
2019-02-25T18:09:31.057Z,15.53
2019-02-25T18:12:04.317Z,14.73
2019-02-25T18:14:36.959Z,15.77
2019-02-25T18:17:10.306Z,16.33
2019-02-25T18:19:45.629Z,14.77
2019-02-25T18:22:17.520Z,17.33
2019-02-25T18:24:50.988Z,18.70
2019-02-25T18:27:24.308Z,17.93
2019-02-25T18:29:57.093Z,17.90
2019-02-25T18:32:30.468Z,16.93
2019-02-25T18:35:02.744Z,18.60
2019-02-25T18:37:37.231Z,17.90
2019-02-25T18:40:11.731Z,17.93
2019-02-25T18:42:44.678Z,17.13
2019-02-25T18:45:18.143Z,16.27
2019-02-25T18:47:49.119Z,18.57
2019-02-25T18:50:21.766Z,18.40
2019-02-25T18:52:57.237Z,20.03
2019-02-25T18:55:29.412Z,20.17
2019-02-25T18:58:02.105Z,19.63
2019-02-25T19:00:35.631Z,23.80
2019-02-25T19:03:07.919Z,23.60
2019-02-25T19:05:39.451Z,23.23
2019-02-25T19:08:15.025Z,22.13
2019-02-25T19:10:48.005Z,22.47
2019-02-25T19:13:20.945Z,23.97
2019-02-25T19:15:54.855Z,23.27
2019-02-25T19:18:26.273Z,23.33
2019-02-25T19:20:59.764Z,24.17
2019-02-25T19:23:36.895Z,24.13
2019-02-25T19:26:08.143Z,24.87
2019-02-25T19:28:44.034Z,28.37
2019-02-25T19:31:14.030Z,30.83
2019-02-25T19:33:45.961Z,30.70
2019-02-25T19:36:19.156Z,30.10
2019-02-25T19:38:52.199Z,28.90
2019-02-25T19:41:27.112Z,29.67
2019-02-25T19:44:01.974Z,29.13
2019-02-25T19:46:33.772Z,27.20
2019-02-25T19:49:05.885Z,26.00
2019-02-25T20:43:30.176Z,36.00
2019-02-25T20:46:06.057Z,46.73
2019-02-25T20:51:52.241Z,42.40
2019-02-25T20:54:24.158Z,43.93
2019-02-25T20:57:05.896Z,48.40
2019-02-25T20:59:38.892Z,47.73
2019-02-25T21:02:15.860Z,51.33
2019-02-25T21:05:00.795Z,49.60
2019-02-25T21:11:10.979Z,50.80
2019-02-25T21:13:42.349Z,50.67
2019-02-25T21:16:24.103Z,51.30
2019-02-25T21:19:08.062Z,49.03
2019-02-25T21:24:19.495Z,44.83
2019-02-25T21:26:50.630Z,44.87
2019-02-25T21:29:23.167Z,41.83
2019-02-25T21:31:56.536Z,37.20
2019-02-25T21:34:29.150Z,36.20
2019-02-25T21:37:02.921Z,35.67
2019-02-25T21:45:32.271Z,33.80
2019-02-25T21:48:04.925Z,31.83
2019-02-25T21:50:42.677Z,31.53
2019-02-25T21:55:55.523Z,31.83
2019-02-25T21:58:31.050Z,33.87
2019-02-25T22:01:03.120Z,35.93
2019-02-25T22:03:47.960Z,34.33
2019-02-25T22:17:49.706Z,32.23
2019-02-25T22:28:45.097Z,34.90
2019-02-25T22:31:20.546Z,38.63
2019-02-25T22:33:52.643Z,40.83
2019-02-25T22:36:25.974Z,38.77
2019-02-25T22:39:15.300Z,33.53
2019-02-25T22:41:54.277Z,33.47
2019-02-25T23:15:51.144Z,18.33
2019-02-25T23:21:26.945Z,19.40
2019-02-25T23:24:04.720Z,20.20
2019-02-25T23:26:59.516Z,18.30
2019-02-25T23:29:39.618Z,17.00
2019-02-25T23:35:09.420Z,17.70
2019-02-25T23:37:40.237Z,17.87
2019-02-25T23:40:14.892Z,17.13
2019-02-25T23:42:48.992Z,16.23
2019-02-25T23:45:23.056Z,16.27
2019-02-25T23:47:57.591Z,17.00
2019-02-25T23:50:29.600Z,15.70
2019-02-25T23:53:02.468Z,15.73
